.
WxDataArchive / Data Records for 2011-06-30
2011-06-29 June 2011 2011-07-01

Data Records for Thursday, 30 June 2011

Time	Temp	Chill	HIndex	Humid	Dewpt	 Wind 	HiWind	WindDir	Rain 	Barom 
-----	----	-----	------	-----	-----	------	------	-------	-----	----- 
00:00	64.3	64.3	64.3	78	57.3	0	0	---	0.00	30.034 
00:05	64.0	64.0	64.0	79	57.4	0	0	---	0.00	30.034 
00:10	63.9	63.9	63.9	79	57.3	0	0	---	0.00	30.034 
00:15	63.7	63.7	63.7	79	57.1	0	0	---	0.00	30.035 
00:20	63.5	63.5	63.5	80	57.2	0	0	---	0.00	30.035 
00:25	63.4	63.4	63.4	80	57.1	0	0	---	0.00	30.035 
00:30	63.2	63.2	63.2	80	56.9	0	0	---	0.00	30.043 
00:35	63.2	63.2	63.2	81	57.3	0	0	---	0.00	30.043 
00:40	63.1	63.1	63.1	81	57.2	0	0	---	0.00	30.043 
00:45	62.9	62.9	62.9	81	57.0	0	0	---	0.00	30.041 
00:50	62.7	62.7	62.7	81	56.8	0	0	---	0.00	30.041 
00:55	62.6	62.6	62.6	81	56.7	0	0	---	0.00	30.041 
01:00	62.4	62.4	62.4	81	56.5	0	0	---	0.00	30.037 
01:05	62.3	62.3	62.3	82	56.7	0	0	---	0.00	30.037 
01:10	62.3	62.3	62.3	83	57.1	0	0	---	0.00	30.037 
01:15	62.1	62.1	62.1	83	56.9	0	0	---	0.00	30.039 
01:20	62.0	62.0	62.0	83	56.8	0	0	---	0.00	30.039 
01:25	61.8	61.8	61.8	83	56.6	0	0	---	0.00	30.039 
01:30	61.6	61.6	61.6	83	56.4	0	0	---	0.00	30.037 
01:35	61.5	61.5	61.5	84	56.6	0	0	---	0.00	30.037 
01:40	61.3	61.3	61.3	84	56.4	0	0	---	0.00	30.037 
01:45	61.2	61.2	61.2	84	56.3	0	0	---	0.00	30.038 
01:50	61.0	61.0	61.0	85	56.5	0	0	---	0.00	30.038 
01:55	60.9	60.9	60.9	85	56.4	0	0	---	0.00	30.038 
02:00	60.9	60.9	60.9	85	56.4	0	0	---	0.00	30.043 
02:05	60.7	60.7	60.7	85	56.2	0	0	---	0.00	30.043 
02:10	60.5	60.5	60.5	86	56.3	0	0	---	0.00	30.043 
02:15	60.4	60.4	60.4	86	56.2	0	0	---	0.00	30.041 
02:20	60.2	60.2	60.2	86	56.0	0	0	---	0.00	30.041 
02:25	60.1	60.1	60.1	87	56.2	0	0	---	0.00	30.041 
02:30	59.9	59.9	59.9	87	56.0	0	0	---	0.00	30.044 
02:35	59.8	59.8	59.8	88	56.2	0	0	---	0.00	30.044 
02:40	59.6	59.6	59.6	88	56.0	0	0	---	0.00	30.044 
02:45	59.6	59.6	59.6	88	56.0	0	0	---	0.00	30.047 
02:50	59.5	59.5	59.5	88	55.9	0	0	---	0.00	30.047 
02:55	59.3	59.3	59.3	89	56.1	0	0	---	0.00	30.047 
03:00	59.2	59.2	59.2	89	56.0	0	0	---	0.00	30.050 
03:05	59.0	59.0	59.0	89	55.8	0	0	---	0.00	30.050 
03:10	59.0	59.0	59.0	89	55.8	0	0	---	0.00	30.050 
03:15	58.9	58.9	58.9	89	55.7	0	0	---	0.00	30.051 
03:20	58.7	58.7	58.7	90	55.8	0	0	---	0.00	30.051 
03:25	58.7	58.7	58.7	90	55.8	0	0	---	0.00	30.051 
03:30	58.7	58.7	58.7	90	55.8	0	0	---	0.00	30.052 
03:35	58.6	58.6	58.6	90	55.7	0	0	---	0.00	30.052 
03:40	58.6	58.6	58.6	90	55.7	0	0	---	0.00	30.052 
03:45	58.6	58.6	58.6	91	56.0	0	0	---	0.00	30.055 
03:50	58.4	58.4	58.4	91	55.8	0	0	---	0.00	30.055 
03:55	58.4	58.4	58.4	91	55.8	0	0	---	0.00	30.055 
04:00	58.4	58.4	58.4	91	55.8	0	0	---	0.00	30.063 
04:05	58.4	58.4	58.4	91	55.8	0	0	---	0.00	30.063 
04:10	58.3	58.3	58.3	91	55.7	0	0	---	0.00	30.063 
04:15	58.3	58.3	58.3	91	55.7	0	0	---	0.00	30.061 
04:20	58.1	58.1	58.1	91	55.5	0	0	---	0.00	30.061 
04:25	58.1	58.1	58.1	91	55.5	0	0	---	0.00	30.061 
04:30	58.0	58.0	58.0	91	55.4	0	0	---	0.00	30.059 
04:35	58.0	58.0	58.0	92	55.7	0	0	---	0.00	30.059 
04:40	58.0	58.0	58.0	92	55.7	0	0	---	0.00	30.059 
04:45	58.0	58.0	58.0	92	55.7	0	0	---	0.00	30.056 
04:50	57.8	57.8	57.8	92	55.5	0	0	---	0.00	30.056 
04:55	57.8	57.8	57.8	92	55.5	0	0	---	0.00	30.056 
05:00	57.6	57.6	57.6	92	55.3	0	0	---	0.00	30.057 
05:05	57.6	57.6	57.6	92	55.3	0	0	---	0.00	30.057 
05:10	57.6	57.6	57.6	92	55.3	0	0	---	0.00	30.057 
05:15	57.6	57.6	57.6	92	55.3	0	0	---	0.00	30.056 
05:20	57.6	57.6	57.6	92	55.3	0	0	---	0.00	30.056 
05:25	57.6	57.6	57.6	92	55.3	0	0	---	0.00	30.056 
05:30	57.5	57.5	57.5	92	55.2	0	0	---	0.00	30.056 
05:35	57.5	57.5	57.5	92	55.2	0	0	---	0.00	30.056 
05:40	57.5	57.5	57.5	92	55.2	0	0	---	0.00	30.056 
05:45	57.5	57.5	57.5	93	55.5	0	0	---	0.00	30.056 
05:50	57.5	57.5	57.5	93	55.5	0	0	---	0.00	30.056 
05:55	57.3	57.3	57.3	93	55.3	0	0	---	0.00	30.056 
06:00	57.5	57.5	57.5	93	55.5	0	0	---	0.00	30.059 
06:05	57.3	57.3	57.3	93	55.3	0	0	---	0.00	30.059 
06:10	57.3	57.3	57.3	93	55.3	0	0	---	0.00	30.059 
06:15	57.3	57.3	57.3	93	55.3	0	0	---	0.00	30.065 
06:20	57.3	57.3	57.3	93	55.3	0	0	---	0.00	30.065 
06:25	57.3	57.3	57.3	93	55.3	0	0	---	0.00	30.065 
06:30	57.3	57.3	57.3	93	55.3	0	0	---	0.00	30.063 
06:35	57.3	57.3	57.3	93	55.3	0	0	---	0.00	30.063 
06:40	57.3	57.3	57.3	93	55.3	0	0	---	0.00	30.063 
06:45	57.5	57.5	57.5	93	55.5	0	0	---	0.00	30.065 
06:50	57.6	57.6	57.6	94	55.9	0	0	---	0.00	30.065 
06:55	57.8	57.8	57.8	94	56.1	0	0	---	0.00	30.065 
07:00	58.0	58.0	58.0	94	56.3	0	0	---	0.00	30.067 
07:05	58.1	58.1	58.1	94	56.4	0	0	---	0.00	30.067 
07:10	58.4	58.4	58.4	94	56.7	0	0	---	0.00	30.067 
07:15	58.6	58.6	58.6	94	56.9	0	0	---	0.00	30.068 
07:20	58.9	58.9	58.9	94	57.2	0	0	---	0.00	30.068 
07:25	59.3	59.3	59.3	94	57.6	0	0	---	0.00	30.068 
07:30	59.9	59.9	59.9	94	58.2	0	0	---	0.00	30.068 
07:35	60.5	60.5	60.5	94	58.8	0	0	---	0.00	30.068 
07:40	61.2	61.2	61.2	94	59.5	0	0	---	0.00	30.068 
07:45	61.8	61.8	61.8	93	59.8	0	0	---	0.00	30.075 
07:50	62.6	62.6	62.6	92	60.2	0	0	---	0.00	30.075 
07:55	63.2	63.2	63.2	91	60.5	0	0	---	0.00	30.075 
08:00	64.2	64.2	64.2	89	60.9	0	0	---	0.00	30.078 
08:05	65.0	65.0	65.0	86	60.7	0	0	---	0.00	30.078 
08:10	65.8	65.8	65.8	84	60.8	0	0	---	0.00	30.078 
08:15	66.6	66.6	66.6	81	60.6	0	0	---	0.00	30.081 
08:20	67.6	67.6	67.6	77	60.1	0	0	---	0.00	30.081 
08:25	68.4	68.4	68.4	75	60.2	0	0	---	0.00	30.081 
08:30	69.1	69.1	69.1	72	59.7	0	0	---	0.00	30.086 
08:35	70.3	70.3	70.3	69	59.6	0	0	---	0.00	30.086 
08:40	71.6	71.6	71.6	62	57.9	0	0	---	0.00	30.086 
08:45	73.0	73.0	73.0	62	59.2	0	0	---	0.00	30.085 
08:50	74.2	74.2	74.2	57	58.0	0	0	---	0.00	30.085 
08:55	75.1	75.1	77.6	56	58.3	0	0	---	0.00	30.085 
09:00	75.8	75.8	78.0	54	57.9	0	0	---	0.00	30.085 
09:05	76.3	76.3	78.3	54	58.4	0	0	---	0.00	30.085 
09:10	76.8	76.8	78.5	53	58.4	0	0	---	0.00	30.085 
09:15	77.0	77.0	78.6	51	57.5	0	1	292	0.00	30.085 
09:20	77.7	77.7	79.1	51	58.1	0	1	292	0.00	30.085 
09:25	78.3	78.3	79.4	49	57.5	0	2	292	0.00	30.085 
09:30	78.5	78.5	79.6	51	58.8	0	1	292	0.00	30.078 
09:35	78.6	78.6	79.7	51	58.9	0	1	135	0.00	30.078 
09:40	79.2	79.2	80.1	50	58.9	0	1	135	0.00	30.078 
09:45	79.4	79.4	80.1	48	58.0	0	1	135	0.00	30.083 
09:50	79.8	79.8	80.5	48	58.3	0	1	135	0.00	30.083 
09:55	79.9	79.9	80.4	47	57.8	0	1	135	0.00	30.083 
10:00	79.4	79.4	80.1	47	57.4	0	2	135	0.00	30.077 
10:05	79.2	79.2	80.1	49	58.4	0	2	225	0.00	30.077 
10:10	79.6	79.6	80.1	46	57.0	0	2	338	0.00	30.077 
10:15	79.4	79.4	80.1	47	57.4	1	4	270	0.00	30.077 
10:20	79.6	79.6	80.4	49	58.7	0	3	248	0.00	30.077 
10:25	79.4	79.4	80.1	48	58.0	0	3	202	0.00	30.077 
10:30	79.2	79.2	80.0	48	57.8	1	2	202	0.00	30.078 
10:35	79.4	79.4	80.1	48	58.0	1	2	202	0.00	30.078 
10:40	79.9	79.9	80.4	46	57.2	1	2	248	0.00	30.078 
10:45	80.3	80.3	80.8	47	58.2	1	3	248	0.00	30.076 
10:50	80.5	80.5	80.7	45	57.2	1	2	248	0.00	30.076 
10:55	80.5	80.5	80.6	44	56.6	1	3	248	0.00	30.076 
11:00	80.7	80.7	80.9	45	57.4	1	4	270	0.00	30.075 
11:05	80.5	80.5	80.6	44	56.6	1	3	270	0.00	30.075 
11:10	80.5	80.5	80.6	44	56.6	1	2	270	0.00	30.075 
11:15	80.7	80.7	81.0	46	58.0	1	3	270	0.00	30.078 
11:20	80.7	80.7	80.9	45	57.4	1	3	270	0.00	30.078 
11:25	80.7	80.7	81.0	46	58.0	1	4	292	0.00	30.078 
11:30	81.1	81.1	81.6	48	59.5	1	2	292	0.00	30.079 
11:35	81.4	81.4	81.5	45	58.0	2	4	292	0.00	30.079 
11:40	81.4	81.4	81.4	44	57.4	1	3	315	0.00	30.079 
11:45	81.4	81.4	81.5	45	58.0	1	4	315	0.00	30.077 
11:50	81.8	81.8	81.6	43	57.1	0	2	315	0.00	30.077 
11:55	81.8	81.8	81.6	43	57.1	1	3	315	0.00	30.077 
12:00	82.0	82.0	81.9	44	57.9	0	3	315	0.00	30.075 
12:05	82.4	82.4	82.3	44	58.3	1	4	315	0.00	30.075 
12:10	82.6	82.6	82.7	45	59.1	0	2	292	0.00	30.075 
12:15	82.8	82.8	82.6	43	58.0	0	2	292	0.00	30.072 
12:20	82.8	82.8	82.4	42	57.3	1	2	292	0.00	30.072 
12:25	82.0	82.0	81.9	44	57.9	2	4	292	0.00	30.072 
12:30	81.8	81.8	81.9	45	58.4	1	3	292	0.00	30.073 
12:35	82.4	82.4	82.3	44	58.3	1	3	292	0.00	30.073 
12:40	82.6	82.6	82.5	44	58.4	1	3	292	0.00	30.073 
12:45	83.2	83.2	83.3	45	59.6	1	3	292	0.00	30.062 
12:50	83.6	83.6	83.4	43	58.7	0	2	292	0.00	30.062 
12:55	83.8	83.8	83.4	42	58.2	1	2	292	0.00	30.062 
13:00	84.0	84.0	83.8	43	59.1	1	4	90	0.00	30.054 
13:05	84.1	84.1	83.6	41	57.8	1	4	270	0.00	30.054 
13:10	84.7	84.7	84.6	43	59.7	0	2	270	0.00	30.054 
13:15	85.1	85.1	84.6	41	58.7	0	3	270	0.00	30.051 
13:20	85.5	85.5	85.5	43	60.4	0	1	270	0.00	30.051 
13:25	85.3	85.3	84.1	37	56.0	1	3	270	0.00	30.051 
13:30	84.7	84.7	83.5	37	55.5	0	2	270	0.00	30.051 
13:35	84.7	84.7	84.0	40	57.7	0	2	270	0.00	30.051 
13:40	84.9	84.9	83.9	38	56.4	1	3	270	0.00	30.051 
13:45	84.9	84.9	84.0	39	57.1	1	2	270	0.00	30.051 
13:50	84.9	84.9	84.4	41	58.5	0	2	270	0.00	30.051 
13:55	84.9	84.9	84.0	39	57.1	0	2	315	0.00	30.051 
14:00	85.3	85.3	84.7	40	58.2	0	2	315	0.00	30.046 
14:05	85.5	85.5	84.5	38	57.0	1	4	315	0.00	30.046 
14:10	85.3	85.3	84.1	37	56.0	1	3	315	0.00	30.046 
14:15	85.1	85.1	84.1	38	56.6	1	2	315	0.00	30.045 
14:20	85.1	85.1	84.1	38	56.6	0	2	315	0.00	30.045 
14:25	85.1	85.1	84.3	39	57.3	0	2	315	0.00	30.045 
14:30	85.5	85.5	84.7	39	57.7	1	3	315	0.00	30.035 
14:35	85.9	85.9	84.9	38	57.3	1	3	315	0.00	30.035 
14:40	86.1	86.1	85.0	37	56.7	2	4	22	0.00	30.035 
14:45	85.9	85.9	85.1	39	58.0	2	3	90	0.00	30.030 
14:50	86.1	86.1	85.4	39	58.2	1	4	90	0.00	30.030 
14:55	85.9	85.9	85.1	39	58.0	1	3	90	0.00	30.030 
15:00	86.7	86.7	85.4	36	56.5	0	2	90	0.00	30.026 
15:05	87.2	87.2	86.4	38	58.5	1	4	292	0.00	30.026 
15:10	87.4	87.4	86.2	36	57.1	0	2	315	0.00	30.026 
15:15	87.6	87.6	85.8	33	54.9	1	3	315	0.00	30.028 
15:20	87.0	87.0	85.8	36	56.8	1	3	315	0.00	30.028 
15:25	86.5	86.5	85.0	35	55.6	2	5	68	0.00	30.028 
15:30	86.7	86.7	85.6	37	57.3	1	3	68	0.00	30.027 
15:35	87.4	87.4	86.2	36	57.1	0	3	270	0.00	30.027 
15:40	87.8	87.8	86.1	33	55.1	1	2	270	0.00	30.027 
15:45	88.0	88.0	86.7	35	56.9	1	3	270	0.00	30.016 
15:50	88.0	88.0	86.3	33	55.2	1	3	315	0.00	30.016 
15:55	87.8	87.8	86.1	33	55.1	0	2	315	0.00	30.016 
16:00	88.0	88.0	86.7	35	56.9	0	2	315	0.00	30.011 
16:05	88.2	88.2	86.9	35	57.0	1	2	315	0.00	30.011 
16:10	88.4	88.4	87.2	35	57.2	0	2	22	0.00	30.011 
16:15	88.2	88.2	86.5	33	55.4	1	3	22	0.00	30.014 
16:20	88.2	88.2	86.5	33	55.4	1	3	112	0.00	30.014 
16:25	88.0	88.0	86.5	34	56.1	0	2	112	0.00	30.014 
16:30	88.0	88.0	86.1	32	54.4	1	3	270	0.00	30.020 
16:35	87.6	87.6	85.5	31	53.2	1	4	270	0.00	30.020 
16:40	88.0	88.0	85.9	31	53.5	0	3	248	0.00	30.020 
16:45	88.0	88.0	86.3	33	55.2	1	5	270	0.00	30.013 
16:50	87.6	87.6	85.7	32	54.1	0	3	270	0.00	30.013 
16:55	87.6	87.6	85.8	33	54.9	1	2	338	0.00	30.013 
17:00	87.4	87.4	85.6	33	54.7	1	4	315	0.00	30.012 
17:05	87.6	87.6	86.2	35	56.5	1	3	315	0.00	30.012 
17:10	87.2	87.2	85.4	33	54.6	1	2	315	0.00	30.012 
17:15	86.5	86.5	84.8	34	54.8	0	1	315	0.00	30.006 
17:20	86.3	86.3	84.6	34	54.6	0	1	315	0.00	30.006 
17:25	86.3	86.3	84.8	35	55.4	1	2	315	0.00	30.006 
17:30	86.1	86.1	84.6	35	55.2	0	1	315	0.00	30.009 
17:35	86.1	86.1	84.6	35	55.2	0	1	315	0.00	30.009 
17:40	86.1	86.1	84.4	34	54.4	0	1	315	0.00	30.009 
17:45	86.5	86.5	85.0	35	55.6	0	1	315	0.00	30.005 
17:50	87.0	87.0	85.0	32	53.5	1	2	315	0.00	30.005 
17:55	86.7	86.7	84.9	33	54.1	0	1	315	0.00	30.005 
18:00	86.3	86.3	84.8	35	55.4	0	1	315	0.00	30.001 
18:05	85.9	85.9	84.4	35	55.0	0	1	315	0.00	30.001 
18:10	85.9	85.9	84.6	36	55.8	0	1	315	0.00	30.001 
18:15	85.7	85.7	84.5	37	56.4	0	1	315	0.00	30.010 
18:20	85.5	85.5	84.2	36	55.5	0	2	315	0.00	30.010 
18:25	85.1	85.1	83.8	36	55.1	0	1	315	0.00	30.010 
18:30	84.9	84.9	83.7	37	55.7	0	1	315	0.00	30.011 
18:35	84.5	84.5	83.2	36	54.6	0	1	315	0.00	30.011 
18:40	84.3	84.3	83.0	36	54.4	0	1	315	0.00	30.011 
18:45	84.1	84.1	83.1	38	55.7	0	1	315	0.00	30.019 
18:50	84.0	84.0	83.0	38	55.6	0	1	315	0.00	30.019 
18:55	84.0	84.0	83.0	38	55.6	0	1	315	0.00	30.019 
19:00	83.8	83.8	82.9	39	56.2	0	1	315	0.00	30.016 
19:05	83.6	83.6	82.6	38	55.3	0	0	---	0.00	30.016 
19:10	83.4	83.4	82.7	40	56.5	0	0	---	0.00	30.016 
19:15	83.2	83.2	82.4	39	55.6	0	0	---	0.00	29.997 
19:20	83.0	83.0	82.3	40	56.2	0	1	315	0.00	29.997 
19:25	82.8	82.8	82.6	43	58.0	0	0	---	0.00	29.997 
19:30	82.4	82.4	82.2	43	57.6	0	1	315	0.00	29.943 
19:35	81.8	81.8	81.5	42	56.4	1	3	270	0.00	29.943 
19:40	81.6	81.6	81.2	41	55.6	1	3	270	0.00	29.943 
19:45	81.8	81.8	81.4	41	55.8	1	3	225	0.00	29.902 
19:50	81.8	81.8	81.3	40	55.1	1	3	112	0.00	29.902 
19:55	82.0	82.0	81.3	39	54.6	0	2	112	0.00	29.902 
20:00	82.2	82.2	81.7	41	56.1	0	2	270	0.00	29.919 
20:05	82.0	82.0	81.6	41	55.9	0	1	270	0.00	29.919 
20:10	81.8	81.8	81.4	41	55.8	0	1	270	0.00	29.919 
20:15	81.6	81.6	81.2	41	55.6	1	4	270	0.00	29.895 
20:20	81.6	81.6	81.2	41	55.6	1	3	270	0.00	29.895 
20:25	81.6	81.6	81.2	41	55.6	1	4	270	0.00	29.895 
20:30	81.4	81.4	81.2	42	56.1	0	1	270	0.00	29.909 
20:35	81.2	81.2	81.0	42	55.9	0	2	270	0.00	29.909 
20:40	81.1	81.1	80.9	42	55.8	0	1	270	0.00	29.909 
20:45	80.9	80.9	80.9	43	56.3	0	0	---	0.00	29.929 
20:50	80.5	80.5	80.6	43	55.9	0	0	---	0.00	29.929 
20:55	80.1	80.1	80.3	43	55.6	0	0	---	0.00	29.929 
21:00	79.9	79.9	80.2	44	56.0	0	0	---	0.00	29.957 
21:05	79.6	79.6	80.0	45	56.4	0	0	---	0.00	29.957 
21:10	79.4	79.4	80.0	46	56.8	0	0	---	0.00	29.957 
21:15	79.2	79.2	80.0	48	57.8	0	0	---	0.00	29.973 
21:20	78.8	78.8	79.7	48	57.4	0	0	---	0.00	29.973 
21:25	78.6	78.6	79.7	50	58.4	0	0	---	0.00	29.973 
21:30	78.3	78.3	79.4	49	57.5	0	0	---	0.00	29.989 
21:35	78.1	78.1	79.3	49	57.4	0	0	---	0.00	29.989 
21:40	78.1	78.1	79.3	49	57.4	0	0	---	0.00	29.989 
21:45	78.1	78.1	79.3	49	57.4	0	0	---	0.00	29.993 
21:50	78.1	78.1	79.3	49	57.4	0	0	---	0.00	29.993 
21:55	77.9	77.9	79.2	50	57.7	0	0	---	0.00	29.993 
22:00	77.7	77.7	79.0	50	57.6	0	0	---	0.00	29.988 
22:05	77.6	77.6	79.0	52	58.6	0	0	---	0.00	29.988 
22:10	77.4	77.4	78.9	52	58.4	0	0	---	0.00	29.988 
22:15	77.0	77.0	78.7	52	58.0	0	0	---	0.00	29.989 
22:20	76.8	76.8	78.6	54	58.9	0	0	---	0.00	29.989 
22:25	76.7	76.7	78.5	55	59.3	0	0	---	0.00	29.989 
22:30	76.3	76.3	78.3	55	58.9	0	0	---	0.00	29.982 
22:35	76.1	76.1	78.1	55	58.7	0	0	---	0.00	29.982 
22:40	75.8	75.8	77.9	56	59.0	0	0	---	0.00	29.982 
22:45	75.6	75.6	77.8	57	59.3	0	0	---	0.00	29.974 
22:50	75.3	75.3	77.6	57	59.0	0	0	---	0.00	29.974 
22:55	75.1	75.1	77.5	58	59.3	0	0	---	0.00	29.974 
23:00	74.9	74.9	74.9	56	58.1	0	0	---	0.00	29.976 
23:05	75.1	75.1	77.6	55	57.8	0	1	270	0.00	29.976 
23:10	75.3	75.3	77.7	55	58.0	0	1	270	0.00	29.976 
23:15	75.4	75.4	77.7	55	58.1	0	0	---	0.00	29.975 
23:20	75.3	75.3	77.7	55	58.0	0	0	---	0.00	29.975 
23:25	75.1	75.1	77.6	54	57.3	0	0	---	0.00	29.975 
23:30	75.1	75.1	77.6	54	57.3	0	0	---	0.00	29.974 
23:35	75.1	75.1	77.6	54	57.3	0	0	---	0.00	29.974 
23:40	74.9	74.9	74.9	54	57.1	0	0	---	0.00	29.974 
23:45	74.7	74.7	74.7	54	56.9	0	0	---	0.00	29.978 
23:50	74.6	74.6	74.6	55	57.3	0	0	---	0.00	29.978 
23:55	74.4	74.4	74.4	56	57.7	0	0	---	0.00	29.978 

CoCoRaHS
IN-AL-39
A2 Web Hosting
Creative Commons License
GoDaddy
search engine by freefind advanced

loaded 2018-11-12 20:01:42 • last modified 2010-11-18 10:43:29
Privacy PolicyDisclaimer
• wx.awcolley.com is powered by PmWiki v.2002016 •
• all content (unless otherwise noted) © 2018 A W Colley